Time;durP1;ratioP1;P1;durP2;ratioP2;P2;SDS_P1;SDS_P2;PMS_P1;PMS_P2;Temp;Humidity;BMP_temperature;BMP_pressure;BME280_temperature;BME280_humidity;BME280_pressure;Samples;Min_cycle;Max_cycle;Signal;HPM_P1;HPM_P2
2023/12/13 00:01:34;;;;;;;3.40;2.27;;;9.00;99.90;;;10.91;66.08;96195.09;5031761;28;20068;-55
2023/12/13 00:04:01;;;;;;;9.13;5.10;;;8.90;99.90;;;10.83;66.54;96184.63;5032271;28;20037;-54
2023/12/13 00:06:29;;;;;;;4.83;2.73;;;8.80;99.90;;;10.76;66.30;96192.59;5031675;28;20068;-55
2023/12/13 00:08:57;;;;;;;6.80;3.67;;;8.70;99.90;;;10.66;66.61;96189.44;5031959;28;20380;-52
2023/12/13 00:11:24;;;;;;;7.27;2.60;;;8.60;99.90;;;10.58;66.35;96185.09;5031652;28;20053;-55
2023/12/13 00:13:52;;;;;;;8.30;4.20;;;8.50;99.90;;;10.52;66.27;96183.25;5031753;28;20040;-55
2023/12/13 00:16:21;;;;;;;5.07;2.27;;;8.40;99.90;;;10.47;66.75;96179.53;5029081;28;20510;-56
2023/12/13 00:18:48;;;;;;;2.20;1.47;;;8.40;99.90;;;10.43;66.74;96176.47;5030523;28;20034;-55
2023/12/13 00:21:17;;;;;;;2.73;1.50;;;8.30;99.90;;;10.39;66.65;96178.69;5030305;28;20060;-56
2023/12/13 00:23:46;;;;;;;1.87;1.33;;;8.30;99.90;;;10.36;66.82;96172.94;5030371;28;20050;-54
2023/12/13 00:26:18;;;;;;;2.67;1.20;;;8.30;99.90;;;10.29;66.79;96180.81;5031097;28;20042;-56
2023/12/13 00:28:46;;;;;;;2.50;1.37;;;8.20;99.90;;;10.22;66.85;96178.13;5031558;28;20046;-54
2023/12/13 00:31:14;;;;;;;2.10;1.20;;;8.20;99.90;;;10.20;66.89;96171.38;5031327;28;20042;-55
2023/12/13 00:33:42;;;;;;;3.07;1.23;;;8.20;99.90;;;10.15;66.68;96171.94;5031305;28;20037;-55
2023/12/13 00:36:10;;;;;;;2.07;1.20;;;8.10;99.90;;;10.12;67.26;96160.88;5030881;28;20397;-52
2023/12/13 00:38:37;;;;;;;4.63;1.30;;;8.10;99.90;;;10.12;67.12;96160.88;5031334;28;20053;-53
2023/12/13 00:41:05;;;;;;;1.90;1.20;;;8.20;99.90;;;10.11;66.99;96159.25;5031300;28;20037;-54
2023/12/13 00:43:33;;;;;;;1.87;1.10;;;8.10;99.90;;;10.12;67.56;96148.41;5030939;28;20049;-55
2023/12/13 00:46:01;;;;;;;1.97;1.07;;;8.20;99.90;;;10.12;67.26;96163.53;5030682;28;20416;-55
2023/12/13 00:48:28;;;;;;;2.80;1.00;;;8.20;99.90;;;10.13;67.17;96162.53;5030394;28;20053;-54
2023/12/13 00:50:56;;;;;;;4.00;1.00;;;8.20;99.90;;;10.14;67.33;96180.09;5031199;28;20072;-56
2023/12/13 00:53:24;;;;;;;1.27;0.90;;;8.20;99.90;;;10.12;67.22;96171.50;5031034;28;20045;-55
2023/12/13 00:55:53;;;;;;;3.37;1.23;;;8.20;99.90;;;10.14;67.50;96164.16;5030923;28;20045;-55
2023/12/13 00:58:21;;;;;;;2.40;0.90;;;8.20;99.90;;;10.14;67.39;96169.47;5030911;28;20045;-52
2023/12/13 01:00:48;;;;;;;1.40;0.63;;;8.20;99.90;;;10.15;67.22;96161.31;5030808;28;20060;-53
2023/12/13 01:03:16;;;;;;;0.60;0.60;;;8.20;99.90;;;10.18;67.45;96157.44;5031005;28;20049;-54
2023/12/13 01:05:44;;;;;;;2.03;1.47;;;8.30;99.90;;;10.18;67.60;96163.59;5013013;28;20054;-56
2023/12/13 01:08:12;;;;;;;4.50;0.87;;;8.20;99.90;;;10.21;67.28;96157.03;5030653;28;20052;-53
2023/12/13 01:10:40;;;;;;;2.37;0.70;;;8.30;99.90;;;10.24;67.26;96154.00;5030779;28;20045;-51
2023/12/13 01:13:07;;;;;;;2.07;1.10;;;8.30;99.90;;;10.24;67.54;96156.66;5030486;28;20046;-54
2023/12/13 01:15:36;;;;;;;1.73;1.03;;;8.30;99.90;;;10.28;67.72;96162.41;5027335;28;20421;-54
2023/12/13 01:18:04;;;;;;;2.80;1.00;;;8.40;99.90;;;10.29;67.74;96169.38;5030442;28;20041;-55
2023/12/13 01:20:32;;;;;;;1.33;1.00;;;8.40;99.90;;;10.32;67.45;96171.69;5030411;28;20049;-55
2023/12/13 01:23:00;;;;;;;2.87;1.40;;;8.40;99.90;;;10.35;67.79;96171.28;5030795;28;20125;-52
2023/12/13 01:25:28;;;;;;;2.77;1.30;;;8.50;99.90;;;10.37;67.76;96164.75;5029635;28;20433;-54
2023/12/13 01:27:57;;;;;;;2.40;0.90;;;8.50;99.90;;;10.39;67.29;96156.56;5029234;28;20044;-54
2023/12/13 01:30:25;;;;;;;3.10;1.00;;;8.50;99.90;;;10.41;67.26;96162.50;5030486;28;20057;-54
2023/12/13 01:32:53;;;;;;;2.83;1.40;;;8.50;99.90;;;10.41;67.12;96163.34;5029385;28;20053;-55
2023/12/13 01:35:21;;;;;;;2.53;0.97;;;8.50;99.90;;;10.43;67.18;96166.63;5030428;28;20041;-54
2023/12/13 01:37:48;;;;;;;2.27;0.97;;;8.50;99.90;;;10.44;67.48;96165.59;5029022;28;20052;-55
2023/12/13 01:40:16;;;;;;;1.40;0.90;;;8.50;99.90;;;10.44;67.06;96151.47;5030728;28;20420;-54
2023/12/13 01:42:44;;;;;;;1.67;1.03;;;8.50;99.90;;;10.42;66.98;96149.00;5033793;28;20049;-55
2023/12/13 01:45:11;;;;;;;3.97;1.43;;;8.50;99.90;;;10.40;67.15;96156.38;5034389;28;20049;-55
2023/12/13 01:47:39;;;;;;;1.37;0.80;;;8.50;99.90;;;10.39;66.84;96149.41;5034109;28;20527;-55
2023/12/13 01:50:07;;;;;;;1.60;0.97;;;8.50;99.90;;;10.41;66.91;96162.50;5033511;28;20520;-56
2023/12/13 01:52:36;;;;;;;1.37;0.90;;;8.50;99.90;;;10.39;66.92;96154.75;5032941;28;20501;-55
2023/12/13 01:55:07;;;;;;;3.27;0.90;;;8.50;99.90;;;10.41;66.58;96151.84;5033341;28;20042;-53
2023/12/13 01:57:36;;;;;;;3.30;1.27;;;8.40;99.90;;;10.39;66.96;96156.56;5032672;28;20042;-56
2023/12/13 02:00:04;;;;;;;2.63;0.97;;;8.40;99.90;;;10.34;67.07;96159.00;5033174;28;20442;-55
2023/12/13 02:02:38;;;;;;;1.27;0.82;;;8.30;99.90;;;10.30;66.57;96169.22;5034042;28;20053;-55
2023/12/13 02:05:07;;;;;;;1.03;0.87;;;8.30;99.90;;;10.29;66.69;96161.38;5033044;28;20053;-53
2023/12/13 02:07:36;;;;;;;1.97;0.80;;;8.30;99.90;;;10.29;66.84;96159.53;5032530;28;20045;-53
2023/12/13 02:10:06;;;;;;;3.90;1.07;;;8.30;99.90;;;10.30;66.91;96158.56;5009310;28;20080;-55
2023/12/13 02:12:35;;;;;;;2.40;0.73;;;8.30;99.90;;;10.32;67.04;96158.38;5030676;28;20046;-55
2023/12/13 02:15:04;;;;;;;1.57;1.10;;;8.40;99.90;;;10.31;67.19;96157.53;5008420;28;20037;-54
2023/12/13 02:17:32;;;;;;;2.10;0.80;;;8.40;99.90;;;10.32;66.91;96169.84;5032315;28;20049;-54
2023/12/13 02:20:01;;;;;;;2.03;0.67;;;8.40;99.90;;;10.31;66.97;96178.81;5033844;28;20038;-54
2023/12/13 02:22:29;;;;;;;5.00;1.20;;;8.40;99.90;;;10.27;66.67;96177.53;5033748;28;20069;-55
2023/12/13 02:25:01;;;;;;;7.17;1.33;;;8.50;99.90;;;10.28;66.27;96165.91;5034052;28;20056;-55
2023/12/13 02:27:29;;;;;;;2.33;0.80;;;8.50;99.90;;;10.26;66.49;96165.28;5033456;28;20052;-55
2023/12/13 02:29:58;;;;;;;3.03;0.77;;;8.40;99.90;;;10.26;66.60;96165.28;5033432;28;20064;-55
2023/12/13 02:32:25;;;;;;;1.20;0.60;;;8.40;99.90;;;10.27;66.65;96155.44;5032330;28;20045;-55
2023/12/13 02:34:54;;;;;;;1.83;1.00;;;8.50;99.90;;;10.19;66.76;96153.75;5033554;28;20521;-54
2023/12/13 02:37:22;;;;;;;1.93;0.90;;;8.40;99.90;;;10.14;66.37;96146.38;5033221;28;20469;-52
2023/12/13 02:39:50;;;;;;;2.00;1.00;;;8.30;99.90;;;10.18;66.50;96144.97;5033434;28;20045;-55
2023/12/13 02:42:18;;;;;;;2.23;0.70;;;8.40;99.90;;;10.07;67.07;96148.16;5033512;28;20045;-53
2023/12/13 02:44:45;;;;;;;1.20;0.70;;;8.30;99.90;;;10.13;66.93;96143.91;5033120;28;20441;-55
2023/12/13 02:47:13;;;;;;;2.73;0.77;;;8.30;99.90;;;10.17;66.81;96151.28;5033213;28;20038;-56
2023/12/13 02:49:41;;;;;;;2.67;1.20;;;8.40;99.90;;;10.21;66.72;96162.38;5033396;28;20105;-55
2023/12/13 02:52:08;;;;;;;3.43;1.00;;;8.40;99.90;;;10.20;66.46;96174.84;5032889;28;20056;-53
2023/12/13 02:54:36;;;;;;;2.53;1.23;;;8.40;99.90;;;10.17;66.86;96163.78;5031294;28;20497;-53
2023/12/13 02:57:04;;;;;;;2.77;0.70;;;8.40;99.90;;;10.18;66.79;96160.91;5032879;28;20516;-55
2023/12/13 02:59:31;;;;;;;4.40;1.70;;;8.40;99.90;;;10.21;67.03;96162.38;5033171;28;20041;-55
2023/12/13 03:01:59;;;;;;;3.47;1.00;;;8.50;99.90;;;10.21;66.77;96157.03;5033041;28;20516;-56
2023/12/13 03:04:27;;;;;;;4.47;0.87;;;8.40;99.90;;;10.22;66.75;96156.84;5031695;28;20057;-55
2023/12/13 03:06:55;;;;;;;2.63;2.10;;;8.40;99.90;;;10.23;66.42;96149.69;5032502;28;20420;-55
2023/12/13 03:09:22;;;;;;;1.50;1.00;;;8.40;99.90;;;10.24;66.40;96148.69;5032994;28;20057;-55
2023/12/13 03:11:50;;;;;;;2.23;1.10;;;8.40;99.90;;;10.26;66.79;96133.34;5031579;28;20045;-55
2023/12/13 03:14:17;;;;;;;1.67;0.80;;;8.50;99.90;;;10.26;66.68;96136.00;5032909;28;20045;-54
2023/12/13 03:16:45;;;;;;;1.50;1.00;;;8.50;99.90;;;10.27;66.57;96136.81;5013651;28;20052;-55
2023/12/13 03:19:13;;;;;;;1.77;1.07;;;8.50;99.90;;;10.27;66.66;96139.47;5032481;28;20046;-56
2023/12/13 03:21:40;;;;;;;4.97;1.07;;;8.50;99.90;;;10.29;66.71;96143.59;5031345;28;20109;-55
2023/12/13 03:24:08;;;;;;;1.60;0.80;;;8.50;99.90;;;10.31;66.95;96141.56;5032827;28;20054;-53
2023/12/13 03:26:36;;;;;;;1.17;0.60;;;8.50;99.90;;;10.27;66.77;96132.31;5032589;28;20052;-55
2023/12/13 03:29:03;;;;;;;2.17;0.73;;;8.50;99.90;;;10.27;67.14;96134.97;5032602;28;20053;-55
2023/12/13 03:31:31;;;;;;;2.27;0.77;;;8.50;99.90;;;10.25;66.74;96129.88;5032370;28;20057;-53
2023/12/13 03:34:00;;;;;;;3.17;0.77;;;8.50;99.90;;;10.23;66.84;96131.06;5032293;28;20050;-55
2023/12/13 03:36:28;;;;;;;3.00;0.70;;;8.50;99.90;;;10.24;66.92;96128.22;5032371;28;20084;-55
2023/12/13 03:38:56;;;;;;;0.93;0.63;;;8.40;99.90;;;10.27;67.11;96124.34;5032415;28;20041;-55
2023/12/13 03:41:23;;;;;;;0.40;0.40;;;8.50;99.90;;;10.30;67.09;96115.16;5032357;28;20037;-53
2023/12/13 03:43:51;;;;;;;4.50;0.90;;;8.50;99.90;;;10.28;66.93;96109.22;5030837;28;20048;-55
2023/12/13 03:46:20;;;;;;;1.47;0.50;;;8.40;99.90;;;10.25;66.82;96105.94;5030901;28;20042;-55
2023/12/13 03:48:48;;;;;;;1.97;0.80;;;8.40;99.90;;;10.25;67.07;96107.75;5031410;28;20416;-54
2023/12/13 03:51:15;;;;;;;2.77;1.37;;;8.30;99.90;;;10.24;66.88;96106.94;5031799;28;20041;-54
2023/12/13 03:53:43;;;;;;;1.87;0.60;;;8.30;99.90;;;10.23;66.74;96104.47;5030997;28;20057;-55
2023/12/13 03:56:12;;;;;;;2.87;0.80;;;8.30;99.90;;;10.24;66.87;96108.78;5023725;28;20049;-55
2023/12/13 03:58:39;;;;;;;1.67;0.90;;;8.30;99.90;;;10.23;66.84;96096.50;5032157;28;20045;-53
2023/12/13 04:01:08;;;;;;;2.07;1.63;;;8.30;99.90;;;10.25;66.96;96075.84;5031735;28;20041;-55
2023/12/13 04:03:36;;;;;;;1.73;0.67;;;8.40;99.90;;;10.27;67.15;96071.16;5031845;28;20053;-54
2023/12/13 04:06:04;;;;;;;4.67;0.90;;;8.40;99.90;;;10.31;66.86;96071.59;5031679;28;20354;-53
2023/12/13 04:08:31;;;;;;;0.93;0.80;;;8.40;99.90;;;10.31;67.02;96061.78;5031821;28;20045;-53
2023/12/13 04:10:59;;;;;;;1.77;0.87;;;8.40;99.90;;;10.27;67.00;96060.50;5031790;28;20417;-54
2023/12/13 04:13:26;;;;;;;1.20;0.50;;;8.40;99.90;;;10.24;67.01;96052.94;5031716;28;20390;-55
2023/12/13 04:15:54;;;;;;;1.77;0.70;;;8.30;99.90;;;10.17;66.76;96052.88;5030589;28;20419;-54
2023/12/13 04:18:22;;;;;;;2.70;0.80;;;8.20;99.90;;;10.09;66.57;96061.03;5031784;28;20052;-55
2023/12/13 04:20:50;;;;;;;1.07;1.00;;;8.10;99.90;;;10.06;66.81;96058.75;5030409;28;20409;-55
2023/12/13 04:23:17;;;;;;;2.20;0.70;;;8.00;99.90;;;10.00;67.12;96056.91;5031696;28;20041;-54
2023/12/13 04:25:45;;;;;;;2.13;0.73;;;8.00;99.90;;;9.95;66.82;96054.03;5031645;28;20417;-55
2023/12/13 04:28:13;;;;;;;2.23;0.70;;;7.90;99.90;;;9.94;67.32;96061.16;5031230;28;20041;-55
2023/12/13 04:30:41;;;;;;;1.20;0.77;;;7.90;99.90;;;9.92;66.89;96067.69;5031261;28;20042;-53
2023/12/13 04:33:09;;;;;;;0.53;0.43;;;7.90;99.90;;;9.91;67.13;96063.41;5031512;28;20060;-56
2023/12/13 04:35:37;;;;;;;1.13;0.60;;;7.90;99.90;;;9.90;67.46;96062.56;5031555;28;20044;-56
2023/12/13 04:38:04;;;;;;;2.70;0.70;;;7.90;99.90;;;9.88;67.53;96058.47;5030848;28;20048;-55
2023/12/13 04:40:32;;;;;;;1.20;0.90;;;7.90;99.90;;;9.91;67.57;96063.41;5031325;28;20508;-55
2023/12/13 04:43:00;;;;;;;2.33;1.13;;;7.90;99.90;;;9.94;67.18;96057.69;5031244;28;20037;-54
2023/12/13 04:45:28;;;;;;;5.43;1.43;;;8.00;99.90;;;9.96;67.29;96047.66;5031098;28;20045;-55
2023/12/13 04:47:56;;;;;;;2.73;0.90;;;8.10;99.90;;;9.96;67.48;96045.81;5030843;28;20050;-55
2023/12/13 04:50:23;;;;;;;1.67;0.90;;;8.00;99.90;;;9.97;67.25;96044.81;5031343;28;20049;-55
2023/12/13 04:52:51;;;;;;;1.00;0.97;;;8.10;99.90;;;10.01;67.26;96042.59;5031075;28;20068;-54
2023/12/13 04:55:19;;;;;;;2.43;1.10;;;8.10;99.90;;;10.02;67.55;96042.41;5030890;28;20037;-54
2023/12/13 04:57:47;;;;;;;0.93;0.80;;;8.20;99.90;;;10.05;67.63;96042.00;5030869;28;20052;-55
2023/12/13 05:00:15;;;;;;;1.87;0.90;;;8.20;99.90;;;10.06;67.23;96040.16;5029650;28;20303;-55
2023/12/13 05:02:43;;;;;;;2.17;1.10;;;8.20;99.90;;;10.10;67.58;96033.44;5030960;28;20045;-55
2023/12/13 05:05:11;;;;;;;1.17;0.80;;;8.20;99.90;;;10.11;67.17;96029.75;5031151;28;20045;-56
2023/12/13 05:07:38;;;;;;;2.03;0.83;;;8.20;99.90;;;10.13;67.21;96034.88;5030817;28;20049;-54
2023/12/13 05:10:07;;;;;;;1.90;1.00;;;8.30;99.90;;;10.12;66.97;96034.06;5031091;28;20504;-55
2023/12/13 05:12:34;;;;;;;1.60;0.90;;;8.20;99.90;;;10.13;67.05;96032.22;5029572;28;20065;-55
2023/12/13 05:15:03;;;;;;;4.43;1.93;;;8.20;99.90;;;10.12;67.23;96030.56;5028115;28;20527;-55
2023/12/13 05:17:31;;;;;;;1.73;1.10;;;8.20;99.90;;;10.10;66.77;96033.44;5030014;28;20033;-55
2023/12/13 05:19:59;;;;;;;3.33;0.97;;;8.10;99.90;;;10.07;67.02;96035.69;5030627;28;20041;-53
2023/12/13 05:22:27;;;;;;;3.07;1.00;;;8.10;99.90;;;10.04;67.19;96026.22;5030807;28;20409;-53
2023/12/13 05:24:54;;;;;;;2.20;0.80;;;8.10;99.90;;;10.04;67.07;96027.06;5030801;28;20398;-55
2023/12/13 05:27:22;;;;;;;2.80;1.10;;;8.00;99.90;;;10.02;67.46;96025.63;5030572;28;20412;-54
2023/12/13 05:29:50;;;;;;;3.37;1.40;;;8.00;99.90;;;10.01;67.11;96024.00;5030852;28;20042;-52
2023/12/13 05:32:17;;;;;;;2.63;1.10;;;8.00;99.90;;;9.99;66.81;96031.34;5030459;28;20045;-53
2023/12/13 05:34:45;;;;;;;3.90;2.23;;;8.00;99.90;;;9.98;67.13;96021.72;5030480;28;20042;-55
2023/12/13 05:37:13;;;;;;;1.17;0.80;;;8.00;99.90;;;9.96;67.25;96013.94;5030342;28;20520;-53
2023/12/13 05:39:40;;;;;;;3.23;1.00;;;8.00;99.90;;;9.99;66.87;96018.03;5030859;28;20040;-54
2023/12/13 05:42:08;;;;;;;1.70;1.00;;;8.10;99.90;;;9.98;66.91;96014.56;5030399;28;20497;-55
2023/12/13 05:44:35;;;;;;;1.73;0.90;;;8.00;99.90;;;9.98;66.91;96006.59;5030293;28;20068;-55
2023/12/13 05:47:04;;;;;;;2.23;1.23;;;8.00;99.90;;;9.97;67.06;96009.44;5030187;28;20045;-55
2023/12/13 05:49:31;;;;;;;1.83;1.07;;;8.00;99.90;;;9.92;67.18;96004.72;5030756;28;20069;-55
2023/12/13 05:51:59;;;;;;;2.17;0.80;;;7.90;99.90;;;9.89;66.94;96004.28;5029264;28;20046;-55
2023/12/13 05:54:26;;;;;;;1.03;0.70;;;7.90;99.90;;;9.88;67.25;96000.81;5031182;28;20067;-53
2023/12/13 05:56:54;;;;;;;7.57;1.20;;;7.90;99.90;;;9.88;66.93;95998.16;5029003;28;20052;-59
2023/12/13 05:59:22;;;;;;;2.20;0.97;;;8.00;99.90;;;9.91;67.26;96002.28;5030623;28;20037;-59
2023/12/13 06:01:50;;;;;;;1.80;1.43;;;8.00;99.90;;;9.87;66.98;95993.88;5030465;28;20485;-59
2023/12/13 06:04:18;;;;;;;1.13;1.03;;;7.90;99.90;;;9.84;67.08;95994.25;5029227;28;20061;-59
2023/12/13 06:06:46;;;;;;;1.50;0.90;;;7.90;99.90;;;9.79;67.29;95994.84;5030058;28;20038;-59
2023/12/13 06:09:14;;;;;;;1.07;0.63;;;7.80;99.90;;;9.76;67.04;96005.84;5030440;28;20120;-59
2023/12/13 06:11:41;;;;;;;2.27;1.23;;;7.80;99.90;;;9.76;66.83;95999.72;5030389;28;20064;-59
2023/12/13 06:14:09;;;;;;;4.23;1.40;;;7.80;99.90;;;9.72;67.13;95999.28;5030228;28;20057;-60
2023/12/13 06:16:37;;;;;;;2.43;1.33;;;7.70;99.90;;;9.72;67.25;96006.47;5027829;28;20041;-59
2023/12/13 06:19:06;;;;;;;2.00;1.00;;;7.80;99.90;;;9.71;67.20;95996.81;5029223;28;20050;-59
2023/12/13 06:21:34;;;;;;;2.40;1.07;;;7.80;99.90;;;9.71;67.03;96002.94;5030237;28;20045;-60
2023/12/13 06:24:02;;;;;;;1.27;0.93;;;7.80;99.90;;;9.72;67.33;96001.13;5030290;28;20453;-59
2023/12/13 06:26:30;;;;;;;2.80;1.07;;;7.90;99.90;;;9.74;67.23;96001.75;5030185;28;20494;-60
2023/12/13 06:28:59;;;;;;;1.83;1.20;;;7.90;99.90;;;9.70;67.06;95998.66;5033783;28;20045;-59
2023/12/13 06:31:27;;;;;;;1.23;0.90;;;7.90;99.90;;;9.70;67.38;95992.53;5025919;28;20056;-59
2023/12/13 06:33:55;;;;;;;2.60;0.90;;;7.80;99.90;;;9.70;67.33;95987.22;5033826;28;20057;-59
2023/12/13 06:36:22;;;;;;;1.97;0.73;;;7.90;99.90;;;9.69;67.50;95982.91;5033269;28;20049;-59
2023/12/13 06:38:50;;;;;;;0.90;0.83;;;7.80;99.90;;;9.65;67.41;95986.00;5033648;28;20033;-59
2023/12/13 06:41:17;;;;;;;4.80;1.43;;;7.80;99.90;;;9.66;67.54;95984.94;5033429;28;20037;-60
2023/12/13 06:43:45;;;;;;;1.83;1.50;;;7.80;99.90;;;9.70;67.49;95982.72;5033444;28;20052;-60
2023/12/13 06:46:13;;;;;;;3.97;1.60;;;7.90;99.90;;;9.72;67.54;95986.00;5032921;28;20053;-60
2023/12/13 06:48:40;;;;;;;3.07;1.40;;;7.90;99.90;;;9.75;67.60;95984.78;5033500;28;20052;-59
2023/12/13 06:51:08;;;;;;;1.73;1.63;;;7.90;99.90;;;9.74;67.63;95980.50;5033231;28;20049;-59
2023/12/13 06:53:37;;;;;;;1.30;1.03;;;7.90;99.90;;;9.77;67.21;95980.09;5033222;28;20049;-60
2023/12/13 06:56:05;;;;;;;2.43;0.93;;;7.90;99.90;;;9.76;67.59;95976.63;5032917;28;20540;-60
2023/12/13 06:58:34;;;;;;;1.87;1.00;;;8.00;99.90;;;9.80;67.47;95974.41;5033332;28;20034;-59
2023/12/13 07:01:04;;;;;;;1.93;1.13;;;8.10;99.90;;;9.80;67.52;95977.88;5031670;28;20045;-59
2023/12/13 07:03:31;;;;;;;1.57;0.93;;;8.00;99.90;;;9.83;67.65;95990.78;5033167;28;20046;-60
2023/12/13 07:06:00;;;;;;;1.53;1.03;;;8.00;99.90;;;9.82;67.21;95977.69;5032523;28;20057;-59
2023/12/13 07:08:28;;;;;;;1.90;1.07;;;8.00;99.90;;;9.81;67.37;95976.06;5031768;28;20041;-60
2023/12/13 07:10:55;;;;;;;3.40;1.60;;;7.90;99.90;;;9.79;67.61;95981.56;5032928;28;20511;-60
2023/12/13 07:13:23;;;;;;;1.90;1.13;;;7.90;99.90;;;9.79;67.10;95986.03;5032905;28;20053;-60
2023/12/13 07:15:51;;;;;;;3.27;1.07;;;8.00;99.90;;;9.82;67.31;95985.66;5030879;28;20038;-60
2023/12/13 07:18:21;;;;;;;1.60;1.10;;;8.00;99.90;;;9.86;67.62;95974.41;5031079;28;20037;-60
2023/12/13 07:20:49;;;;;;;2.47;1.07;;;8.10;99.90;;;9.84;67.33;95979.09;5032761;28;20041;-60
2023/12/13 07:23:16;;;;;;;2.77;1.80;;;8.10;99.90;;;9.88;67.38;95978.72;5032707;28;20045;-60
2023/12/13 07:25:44;;;;;;;1.03;0.97;;;8.10;99.90;;;9.91;67.24;95973.03;5032581;28;20045;-61
2023/12/13 07:28:13;;;;;;;1.90;0.90;;;8.10;99.90;;;9.91;67.20;95978.34;5031066;28;20057;-62
2023/12/13 07:30:41;;;;;;;2.17;1.10;;;8.10;99.90;;;9.94;67.54;95983.25;5032560;28;20052;-63
2023/12/13 07:33:18;;;;;;;1.93;1.20;;;8.20;99.90;;;9.95;67.31;95983.06;5032646;28;20204;-63
2023/12/13 07:35:47;;;;;;;3.17;1.27;;;8.20;99.90;;;9.99;67.17;95978.97;5031187;28;20037;-62
2023/12/13 07:38:15;;;;;;;3.97;1.23;;;8.30;99.90;;;10.00;66.73;95979.78;5031844;28;20504;-62
2023/12/13 07:40:44;;;;;;;1.63;1.53;;;8.30;99.90;;;10.03;66.99;95969.59;5030723;28;20497;-61
2023/12/13 07:43:12;;;;;;;2.00;0.90;;;8.30;99.90;;;10.03;67.16;95966.13;5031042;28;20046;-61
2023/12/13 07:45:39;;;;;;;1.80;1.00;;;8.20;99.90;;;10.03;66.67;95968.78;5032615;28;20045;-62
2023/12/13 07:48:07;;;;;;;1.80;0.93;;;8.30;99.70;;;10.02;66.74;95970.63;5032071;28;20056;-62
2023/12/13 07:50:53;;;;;;;1.53;1.10;;;8.30;99.90;;;10.04;66.56;95975.72;5032352;28;20413;-61
2023/12/13 07:53:20;;;;;;;1.63;0.90;;;8.30;99.40;;;10.03;66.65;95977.56;5031954;28;20116;-61
2023/12/13 07:55:48;;;;;;;3.93;1.40;;;8.20;99.90;;;10.05;67.09;95977.38;5031882;28;20038;-61
2023/12/13 07:58:18;;;;;;;2.00;1.57;;;8.30;99.90;;;10.08;66.63;95981.47;5032072;28;20505;-61
2023/12/13 08:00:47;;;;;;;1.73;1.03;;;8.30;99.70;;;10.10;66.88;95977.59;5032399;28;20591;-62
2023/12/13 08:03:14;;;;;;;1.70;0.60;;;8.30;99.20;;;10.12;66.91;95980.88;5032069;28;20045;-62
2023/12/13 08:05:42;;;;;;;1.83;0.80;;;8.40;99.00;;;10.14;66.58;95986.81;5031916;28;20045;-61
2023/12/13 08:08:10;;;;;;;0.70;0.50;;;8.40;98.10;;;10.16;66.68;95976.81;5030813;28;20516;-61
2023/12/13 08:10:37;;;;;;;1.53;0.87;;;8.50;97.90;;;10.19;66.59;95970.25;5030646;28;20037;-61
2023/12/13 08:13:05;;;;;;;1.50;0.70;;;8.60;97.00;;;10.20;66.18;95975.38;5031573;28;20053;-61
2023/12/13 08:15:33;;;;;;;2.67;1.07;;;8.50;97.70;;;10.21;66.14;95971.69;5027833;28;20041;-61
2023/12/13 08:18:00;;;;;;;1.80;0.77;;;8.50;97.20;;;10.23;66.06;95980.28;5031110;28;20041;-62
2023/12/13 08:20:29;;;;;;;1.40;0.80;;;8.60;97.00;;;10.24;65.93;95970.50;5031532;28;20046;-62
2023/12/13 08:22:57;;;;;;;0.97;0.80;;;8.60;96.90;;;10.27;65.96;95969.25;5031916;28;20037;-63
2023/12/13 08:25:25;;;;;;;2.40;1.20;;;8.60;96.50;;;10.30;66.35;95968.88;5031446;28;20045;-63
2023/12/13 08:27:53;;;;;;;2.37;0.97;;;8.50;97.90;;;10.28;66.11;95977.06;5029888;28;20052;-62
2023/12/13 08:30:21;;;;;;;1.17;0.90;;;8.60;98.00;;;10.30;66.27;95974.19;5031788;28;20057;-62
2023/12/13 08:32:49;;;;;;;0.90;0.70;;;8.60;98.20;;;10.29;66.19;95981.34;5031441;28;20064;-62
2023/12/13 08:35:17;;;;;;;0.77;0.70;;;8.50;98.20;;;10.31;65.85;95981.16;5031298;28;20049;-62
2023/12/13 08:37:44;;;;;;;1.03;0.53;;;8.60;98.40;;;10.33;65.95;95982.63;5031005;28;20050;-61
2023/12/13 08:40:12;;;;;;;3.40;1.10;;;8.60;98.20;;;10.35;66.26;95975.28;5031103;28;20417;-62
2023/12/13 08:42:40;;;;;;;3.47;1.40;;;8.60;99.00;;;10.37;66.11;95969.72;5031156;28;20441;-61
2023/12/13 08:45:13;;;;;;;2.73;1.13;;;8.60;98.60;;;10.38;66.26;95972.19;5030920;28;20045;-61
2023/12/13 08:47:40;;;;;;;4.07;1.23;;;8.60;98.70;;;10.40;66.03;95975.47;5031009;28;20061;-62
2023/12/13 08:50:08;;;;;;;1.60;1.10;;;8.70;98.60;;;10.42;65.72;95978.75;5029700;28;20056;-61
2023/12/13 08:52:36;;;;;;;3.60;1.70;;;8.70;98.20;;;10.43;66.30;95975.06;5030239;28;20049;-61
2023/12/13 08:55:04;;;;;;;4.47;1.90;;;8.70;97.60;;;10.45;65.85;95977.53;5031140;28;20041;-62
2023/12/13 08:57:32;;;;;;;6.10;3.07;;;8.80;97.30;;;10.50;66.01;95972.41;5030798;28;20045;-61
2023/12/13 09:00:00;;;;;;;13.47;4.80;;;8.90;97.20;;;10.50;65.72;95983.06;5030955;28;20041;-61
2023/12/13 09:02:37;;;;;;;7.07;3.50;;;8.90;96.80;;;10.55;65.84;95982.47;5030864;28;20052;-61
2023/12/13 09:05:05;;;;;;;6.93;3.33;;;8.90;97.10;;;10.60;65.78;95980.00;5030915;28;20060;-61
2023/12/13 09:07:33;;;;;;;2.17;1.13;;;9.00;96.70;;;10.61;65.59;95979.81;5030756;28;20682;-61
2023/12/13 09:10:03;;;;;;;2.17;0.90;;;9.00;96.10;;;10.63;66.11;95977.78;5030863;28;20057;-61
2023/12/13 09:12:30;;;;;;;2.13;1.13;;;9.00;97.00;;;10.70;65.43;95979.63;5030849;28;20042;-61
2023/12/13 09:14:58;;;;;;;2.90;1.00;;;9.10;96.70;;;10.75;65.94;95975.31;5031015;28;20428;-61
2023/12/13 09:17:26;;;;;;;1.13;1.00;;;9.10;97.00;;;10.78;65.67;95977.59;5024212;28;20535;-62
2023/12/13 09:19:54;;;;;;;2.13;0.80;;;9.20;96.70;;;10.81;65.91;95979.84;5018080;28;20049;-61
2023/12/13 09:22:21;;;;;;;1.53;0.97;;;9.20;96.70;;;10.85;65.95;95982.91;5021051;28;20044;-61
2023/12/13 09:24:49;;;;;;;1.43;0.90;;;9.20;96.80;;;10.89;65.61;95984.16;5024680;28;20041;-61
2023/12/13 09:27:17;;;;;;;2.37;0.80;;;9.30;96.30;;;10.90;65.80;95987.66;5024255;28;20045;-61
2023/12/13 09:29:44;;;;;;;3.07;0.90;;;9.30;96.10;;;10.89;65.39;95984.16;5024904;28;20061;-61
2023/12/13 09:32:12;;;;;;;2.00;0.90;;;9.30;96.00;;;10.87;65.40;95982.72;5024742;28;20061;-61
2023/12/13 09:34:41;;;;;;;2.07;1.10;;;9.20;96.00;;;10.86;65.70;95986.38;5026820;28;20057;-61
2023/12/13 09:37:09;;;;;;;6.57;1.87;;;9.20;96.50;;;10.88;65.92;96000.34;5025449;28;20056;-62
2023/12/13 09:39:36;;;;;;;3.33;1.30;;;9.20;96.70;;;10.90;65.69;96004.44;5025533;28;20245;-61
2023/12/13 09:42:04;;;;;;;1.90;1.23;;;9.20;96.90;;;10.92;65.50;96002.38;5023906;28;20058;-61
2023/12/13 09:44:33;;;;;;;1.57;0.90;;;9.30;97.30;;;10.91;65.36;96003.41;5022366;28;20598;-61
2023/12/13 09:47:02;;;;;;;1.27;0.80;;;9.20;97.20;;;10.91;65.51;96008.72;5021706;28;21209;-62
2023/12/13 09:49:31;;;;;;;2.33;1.07;;;9.20;97.50;;;10.92;65.72;96007.72;5022402;28;20053;-62
2023/12/13 09:52:08;;;;;;;2.43;0.90;;;9.20;97.20;;;10.93;65.50;96003.19;5024318;28;20056;-62
2023/12/13 09:54:41;;;;;;;2.50;1.20;;;9.30;97.70;;;10.95;65.73;96009.97;5025594;28;20516;-62
2023/12/13 09:57:08;;;;;;;2.70;1.30;;;9.30;98.00;;;10.98;65.81;96017.53;5024003;28;20041;-62
2023/12/13 09:59:38;;;;;;;2.50;1.10;;;9.30;98.20;;;11.01;65.58;96009.16;5026196;28;20041;-62
2023/12/13 10:02:12;;;;;;;1.77;1.40;;;9.30;98.00;;;11.03;65.84;96009.78;5025500;28;20520;-62
2023/12/13 10:04:43;;;;;;;1.33;0.90;;;9.30;97.70;;;11.02;65.56;96001.97;5029894;28;20476;-62
2023/12/13 10:07:11;;;;;;;3.47;1.40;;;9.30;97.90;;;11.00;65.64;96009.34;5028028;28;20072;-62
2023/12/13 10:09:39;;;;;;;2.60;1.10;;;9.20;97.70;;;10.97;65.62;96007.94;5029673;28;20037;-62
2023/12/13 10:12:07;;;;;;;2.33;1.03;;;9.20;98.40;;;10.98;65.84;96012.22;5029924;28;20049;-62
2023/12/13 10:14:35;;;;;;;3.57;1.83;;;9.20;98.60;;;10.96;65.77;96003.63;5029695;28;20493;-62
2023/12/13 10:17:04;;;;;;;4.07;2.60;;;9.20;98.50;;;10.97;66.11;95997.28;5028897;28;20048;-62
2023/12/13 10:19:47;;;;;;;3.93;2.43;;;9.20;98.40;;;11.00;66.14;95993.38;5026657;28;20053;-62
2023/12/13 10:22:18;;;;;;;5.43;2.13;;;9.20;98.40;;;10.99;65.84;95992.56;5029435;28;20041;-62
2023/12/13 10:24:46;;;;;;;3.57;2.07;;;9.20;99.20;;;10.98;66.25;95996.25;5033673;28;20409;-62
2023/12/13 10:27:14;;;;;;;2.43;1.43;;;9.20;99.20;;;10.99;66.22;95995.22;5033280;28;20446;-54
2023/12/13 10:29:42;;;;;;;3.33;1.70;;;9.20;99.50;;;11.02;65.90;95994.00;5033469;28;20048;-62
2023/12/13 10:32:09;;;;;;;4.40;2.70;;;9.20;99.70;;;11.06;66.01;95992.56;5033586;28;20058;-62